Time;durP1;ratioP1;P1;durP2;ratioP2;P2;SDS_P1;SDS_P2;PMS_P1;PMS_P2;Temp;Humidity;BMP_temperature;BMP_pressure;BME280_temperature;BME280_humidity;BME280_pressure;Samples;Min_cycle;Max_cycle;Signal;HPM_P1;HPM_P2
2023/11/06 00:01:34;;;;;;;4.70;1.40;;;9.40;99.90;;;;;;5035983;28;20049;-43
2023/11/06 00:04:01;;;;;;;5.75;1.70;;;9.40;99.90;;;;;;5040785;28;20069;-41
2023/11/06 00:06:30;;;;;;;3.65;1.65;;;9.30;99.90;;;;;;5038932;28;20072;-44
2023/11/06 00:08:57;;;;;;;3.47;1.40;;;9.40;99.90;;;;;;5034570;28;20049;-42
2023/11/06 00:11:24;;;;;;;5.10;1.70;;;9.40;99.90;;;;;;5034442;28;20072;-41
2023/11/06 00:13:52;;;;;;;3.55;1.73;;;9.40;99.90;;;;;;5031949;28;20121;-43
2023/11/06 00:16:19;;;;;;;4.55;1.52;;;9.30;99.90;;;;;;5034092;28;20051;-42
2023/11/06 00:18:55;;;;;;;5.90;1.55;;;9.30;99.90;;;;;;5031869;28;20057;-42
2023/11/06 00:21:23;;;;;;;5.40;1.60;;;9.40;99.90;;;;;;5033866;28;20369;-41
2023/11/06 00:23:54;;;;;;;3.92;1.45;;;9.30;99.90;;;;;;5030880;28;20049;-40
2023/11/06 00:26:21;;;;;;;4.50;1.77;;;9.30;99.90;;;;;;5034367;28;20410;-40
2023/11/06 00:28:54;;;;;;;4.47;1.70;;;9.20;99.90;;;;;;5030731;28;20046;-41
2023/11/06 00:31:21;;;;;;;4.88;1.80;;;9.20;99.90;;;;;;5036679;28;20042;-38
2023/11/06 00:33:48;;;;;;;2.67;1.45;;;9.20;99.90;;;;;;5035937;28;20054;-39
2023/11/06 00:36:25;;;;;;;3.97;1.80;;;9.30;99.90;;;;;;5033741;28;20044;-41
2023/11/06 00:38:53;;;;;;;4.97;2.72;;;9.30;99.90;;;;;;5031348;28;20081;-42
2023/11/06 00:41:20;;;;;;;5.55;1.58;;;9.30;99.90;;;;;;5034510;28;20518;-42
2023/11/06 00:43:47;;;;;;;4.78;1.77;;;9.40;99.90;;;;;;5039445;28;20430;-40
2023/11/06 00:46:14;;;;;;;2.58;1.50;;;9.40;99.90;;;;;;5040388;28;20045;-41
2023/11/06 00:48:41;;;;;;;5.45;1.60;;;9.50;99.90;;;;;;5040172;28;20124;-39
2023/11/06 00:51:08;;;;;;;4.53;1.52;;;9.50;99.90;;;;;;5035411;28;20084;-42
2023/11/06 00:53:35;;;;;;;5.05;1.52;;;9.50;99.90;;;;;;5032372;28;20075;-41
2023/11/06 00:56:03;;;;;;;2.90;1.45;;;9.50;99.90;;;;;;5032887;28;20048;-40
2023/11/06 00:58:30;;;;;;;2.92;1.45;;;9.50;99.90;;;;;;5032525;28;20053;-41
2023/11/06 01:00:57;;;;;;;4.68;1.70;;;9.60;99.90;;;;;;5035386;28;20089;-40
2023/11/06 01:03:24;;;;;;;4.20;1.50;;;9.60;99.90;;;;;;5039304;28;20068;-43
2023/11/06 01:05:51;;;;;;;4.93;2.00;;;9.60;99.90;;;;;;5037623;28;20057;-39
2023/11/06 01:08:18;;;;;;;3.90;1.50;;;9.50;99.90;;;;;;5037166;28;20092;-41
2023/11/06 01:10:45;;;;;;;3.53;1.75;;;9.50;99.90;;;;;;5040034;28;20100;-42
2023/11/06 01:13:13;;;;;;;3.88;1.40;;;9.50;99.90;;;;;;5033838;28;20115;-39
2023/11/06 01:15:42;;;;;;;3.08;1.35;;;9.40;99.90;;;;;;5034304;28;20041;-41
2023/11/06 01:18:10;;;;;;;2.85;1.33;;;9.40;99.90;;;;;;5032324;28;20038;-39
2023/11/06 01:20:40;;;;;;;3.38;1.30;;;9.40;99.90;;;;;;5035619;28;20440;-40
2023/11/06 01:23:07;;;;;;;4.53;1.40;;;9.40;99.90;;;;;;5021765;28;20510;-42
2023/11/06 01:25:35;;;;;;;4.90;1.30;;;9.40;99.90;;;;;;5040357;28;20055;-41
2023/11/06 01:28:03;;;;;;;4.13;1.50;;;9.30;99.90;;;;;;5033422;28;20170;-41
2023/11/06 01:30:31;;;;;;;4.50;1.60;;;9.30;99.90;;;;;;5030805;28;20037;-41
2023/11/06 01:33:00;;;;;;;5.03;1.50;;;9.30;99.90;;;;;;5033840;28;20163;-40
2023/11/06 01:35:30;;;;;;;2.70;1.30;;;9.30;99.90;;;;;;5032061;28;20411;-42
2023/11/06 01:37:58;;;;;;;3.70;1.30;;;9.40;99.90;;;;;;5033825;28;20057;-44
2023/11/06 01:40:25;;;;;;;2.60;1.40;;;9.40;99.90;;;;;;5032097;28;20407;-41
2023/11/06 01:42:52;;;;;;;3.92;1.40;;;9.30;99.90;;;;;;5029323;28;20064;-40
2023/11/06 01:45:19;;;;;;;2.08;1.45;;;9.20;99.90;;;;;;5030517;28;20526;-43
2023/11/06 01:47:47;;;;;;;3.10;1.25;;;9.20;99.90;;;;;;5029785;28;20041;-40
2023/11/06 01:50:15;;;;;;;2.15;1.20;;;9.20;99.90;;;;;;5028010;28;20103;-39
2023/11/06 01:52:43;;;;;;;2.42;1.20;;;9.10;99.90;;;;;;5028759;28;20053;-41
2023/11/06 01:55:11;;;;;;;4.30;1.33;;;9.10;99.90;;;;;;5028982;28;20119;-42
2023/11/06 01:57:39;;;;;;;4.15;1.48;;;9.00;99.90;;;;;;5034820;28;20061;-40
2023/11/06 02:00:10;;;;;;;6.85;1.73;;;9.00;99.90;;;;;;5037605;28;20087;-41
2023/11/06 02:02:43;;;;;;;2.00;1.33;;;8.90;99.90;;;;;;5031781;28;20063;-42
2023/11/06 02:05:11;;;;;;;4.93;1.30;;;9.00;99.90;;;;;;5025989;28;20088;-38
2023/11/06 02:07:39;;;;;;;2.75;1.25;;;8.90;99.90;;;;;;5032123;28;20052;-40
2023/11/06 02:10:06;;;;;;;3.33;1.45;;;9.00;99.90;;;;;;5031775;28;20046;-40
2023/11/06 02:12:33;;;;;;;4.07;1.30;;;8.90;99.90;;;;;;5012174;28;20104;-39
2023/11/06 02:15:00;;;;;;;3.97;1.50;;;8.90;99.90;;;;;;5031989;28;20537;-41
2023/11/06 02:17:28;;;;;;;3.72;1.40;;;8.90;99.90;;;;;;5032563;28;20107;-41
2023/11/06 02:19:55;;;;;;;5.82;1.30;;;8.90;99.90;;;;;;5012732;28;20556;-43
2023/11/06 02:22:23;;;;;;;2.60;1.30;;;8.90;99.90;;;;;;5029780;28;20049;-40
2023/11/06 02:24:50;;;;;;;4.05;1.42;;;8.90;99.90;;;;;;5037953;28;20057;-42
2023/11/06 02:27:17;;;;;;;5.10;1.10;;;9.00;99.90;;;;;;5040160;28;20052;-41
2023/11/06 02:29:46;;;;;;;4.90;1.42;;;8.90;99.90;;;;;;5040794;28;20052;-43
2023/11/06 02:32:13;;;;;;;3.03;1.50;;;8.90;99.90;;;;;;5039071;28;20529;-44
2023/11/06 02:34:41;;;;;;;3.47;1.45;;;8.90;99.90;;;;;;5033107;28;20041;-42
2023/11/06 02:37:08;;;;;;;4.82;2.22;;;8.80;99.90;;;;;;5031797;28;20057;-40
2023/11/06 02:39:37;;;;;;;4.93;1.42;;;8.80;99.90;;;;;;5032103;28;20057;-43
2023/11/06 02:42:04;;;;;;;3.10;1.40;;;8.80;99.90;;;;;;5029245;28;20045;-42
2023/11/06 02:44:32;;;;;;;3.05;1.40;;;8.80;99.90;;;;;;5030420;28;20099;-39
2023/11/06 02:46:59;;;;;;;5.63;1.42;;;8.80;99.90;;;;;;5037743;28;20046;-41
2023/11/06 02:49:27;;;;;;;2.83;1.40;;;8.70;99.90;;;;;;5031311;28;20081;-42
2023/11/06 02:51:54;;;;;;;3.80;1.30;;;8.70;99.90;;;;;;5032016;28;20048;-41
2023/11/06 02:54:25;;;;;;;3.35;1.27;;;8.80;99.90;;;;;;5030262;28;20404;-43
2023/11/06 02:56:52;;;;;;;2.65;1.60;;;8.80;99.90;;;;;;5026514;28;20155;-41
2023/11/06 02:59:21;;;;;;;5.97;1.20;;;8.90;99.90;;;;;;5027775;28;20060;-41
2023/11/06 03:01:50;;;;;;;4.03;1.30;;;8.90;99.90;;;;;;5026941;28;20490;-43
2023/11/06 03:04:18;;;;;;;5.53;1.45;;;8.90;99.90;;;;;;5028822;28;20069;-41
2023/11/06 03:06:46;;;;;;;4.82;1.40;;;8.90;99.90;;;;;;5029791;28;20060;-41
2023/11/06 03:09:13;;;;;;;4.63;1.42;;;8.80;99.90;;;;;;5031100;28;20426;-40
2023/11/06 03:11:40;;;;;;;3.50;1.50;;;8.80;99.90;;;;;;5033150;28;20053;-41
2023/11/06 03:14:08;;;;;;;4.45;1.50;;;8.70;99.90;;;;;;5035435;28;20049;-42
2023/11/06 03:16:36;;;;;;;4.05;1.40;;;8.70;99.90;;;;;;5036338;28;20053;-42
2023/11/06 03:19:03;;;;;;;4.68;1.60;;;8.70;99.90;;;;;;5035254;28;20164;-42
2023/11/06 03:21:30;;;;;;;2.67;1.33;;;8.60;99.90;;;;;;5035299;28;20081;-42
2023/11/06 03:23:57;;;;;;;3.67;1.85;;;8.60;99.90;;;;;;5039034;28;20060;-40
2023/11/06 03:26:24;;;;;;;5.47;1.77;;;8.60;99.90;;;;;;5039051;28;20068;-40
2023/11/06 03:28:51;;;;;;;4.28;1.27;;;8.60;99.90;;;;;;5040315;28;20093;-43
2023/11/06 03:31:18;;;;;;;5.22;1.77;;;8.50;99.90;;;;;;5040908;28;20087;-43
2023/11/06 03:33:46;;;;;;;4.82;1.45;;;8.40;99.90;;;;;;5037747;28;20738;-41
2023/11/06 03:36:13;;;;;;;5.93;1.60;;;8.40;99.90;;;;;;5038019;28;20235;-41
2023/11/06 03:38:40;;;;;;;6.70;1.77;;;8.30;99.90;;;;;;5039325;28;20418;-39
2023/11/06 03:41:07;;;;;;;6.88;1.90;;;8.30;99.90;;;;;;5029423;28;20068;-40
2023/11/06 03:43:34;;;;;;;5.13;1.60;;;8.20;99.90;;;;;;5035830;28;20045;-40
2023/11/06 03:46:02;;;;;;;7.15;1.63;;;8.10;99.90;;;;;;5034832;28;20087;-40
2023/11/06 03:48:30;;;;;;;4.85;1.40;;;8.10;99.90;;;;;;5039558;28;20192;-42
2023/11/06 03:50:57;;;;;;;2.75;1.30;;;8.20;99.90;;;;;;5029409;28;20044;-42
2023/11/06 03:53:24;;;;;;;3.25;1.60;;;8.20;99.90;;;;;;5031498;28;20045;-40
2023/11/06 03:55:51;;;;;;;4.97;1.50;;;8.30;99.90;;;;;;5028387;28;20145;-42
2023/11/06 03:58:18;;;;;;;3.45;1.50;;;8.20;99.90;;;;;;5031444;28;20053;-40
2023/11/06 04:00:46;;;;;;;5.55;1.65;;;8.30;99.90;;;;;;5034604;28;20060;-40
2023/11/06 04:03:13;;;;;;;3.33;1.50;;;8.30;99.90;;;;;;5030253;28;20131;-39
2023/11/06 04:05:40;;;;;;;6.00;1.80;;;8.30;99.90;;;;;;5032752;28;20049;-39
2023/11/06 04:08:09;;;;;;;6.30;1.58;;;8.30;99.90;;;;;;5031853;28;20041;-40
2023/11/06 04:10:38;;;;;;;4.10;1.52;;;8.40;99.90;;;;;;5035431;28;20569;-43
2023/11/06 04:13:05;;;;;;;4.10;1.23;;;8.40;99.90;;;;;;5032348;28;20047;-41
2023/11/06 04:15:33;;;;;;;4.55;1.67;;;8.40;99.90;;;;;;5027447;28;20041;-42
2023/11/06 04:18:00;;;;;;;4.75;2.00;;;8.40;99.90;;;;;;5031415;28;20053;-42
2023/11/06 04:20:27;;;;;;;5.38;1.33;;;8.50;99.90;;;;;;5027944;28;20054;-40
2023/11/06 04:22:54;;;;;;;4.30;1.48;;;8.40;99.90;;;;;;5028549;28;20049;-40
2023/11/06 04:25:21;;;;;;;3.08;1.48;;;8.50;99.90;;;;;;5030450;28;20091;-43
2023/11/06 04:27:48;;;;;;;4.53;1.63;;;8.50;99.90;;;;;;5033099;28;20050;-44
2023/11/06 04:30:16;;;;;;;6.13;1.60;;;8.50;99.90;;;;;;5031101;28;20418;-40
2023/11/06 04:32:43;;;;;;;4.18;1.50;;;8.60;99.90;;;;;;5032101;28;20498;-41
2023/11/06 04:35:10;;;;;;;4.35;1.60;;;8.60;99.90;;;;;;5032188;28;20088;-43
2023/11/06 04:37:39;;;;;;;4.78;1.52;;;8.60;99.90;;;;;;5033349;28;20143;-43
2023/11/06 04:40:11;;;;;;;3.53;1.48;;;8.50;99.90;;;;;;5040167;28;20514;-43
2023/11/06 04:42:40;;;;;;;4.63;1.80;;;8.50;99.90;;;;;;5036694;28;20042;-42
2023/11/06 04:45:11;;;;;;;7.03;2.10;;;8.60;99.90;;;;;;5035863;28;20590;-40
2023/11/06 04:47:40;;;;;;;3.37;1.67;;;8.60;99.90;;;;;;5037531;28;20060;-41
2023/11/06 04:50:07;;;;;;;5.15;1.58;;;8.70;99.90;;;;;;5041983;28;20049;-41
2023/11/06 04:52:34;;;;;;;5.25;1.70;;;8.80;99.90;;;;;;5036496;28;20030;-42
2023/11/06 04:55:02;;;;;;;7.97;2.30;;;8.80;99.90;;;;;;5037671;28;20054;-38
2023/11/06 04:57:30;;;;;;;6.35;1.90;;;8.70;99.90;;;;;;5038447;28;20049;-42
2023/11/06 04:59:57;;;;;;;3.90;1.73;;;8.70;99.90;;;;;;5040549;28;20080;-41
2023/11/06 05:02:25;;;;;;;3.67;1.35;;;8.70;99.90;;;;;;5041500;28;20105;-41
2023/11/06 05:04:52;;;;;;;4.13;1.45;;;8.70;99.90;;;;;;5037110;28;20045;-41
2023/11/06 05:07:19;;;;;;;7.10;1.63;;;8.80;99.90;;;;;;5040203;28;20045;-41
2023/11/06 05:09:46;;;;;;;6.82;1.40;;;8.80;99.90;;;;;;5037377;28;20068;-43
2023/11/06 05:12:13;;;;;;;4.32;1.45;;;8.70;99.90;;;;;;5033139;28;20045;-41
2023/11/06 05:14:40;;;;;;;3.45;1.50;;;8.80;99.90;;;;;;5041244;28;20056;-42
2023/11/06 05:17:07;;;;;;;5.32;1.70;;;8.80;99.90;;;;;;5038137;28;20057;-42
2023/11/06 05:19:38;;;;;;;4.55;1.60;;;8.80;99.90;;;;;;5039037;28;20068;-40
2023/11/06 05:22:05;;;;;;;6.78;1.60;;;8.90;99.90;;;;;;5039547;28;20053;-40
2023/11/06 05:24:41;;;;;;;4.10;1.73;;;8.90;99.90;;;;;;5038698;28;20132;-40
2023/11/06 05:27:08;;;;;;;5.53;1.80;;;8.90;99.90;;;;;;5036864;28;20049;-40
2023/11/06 05:29:35;;;;;;;8.02;2.00;;;8.80;99.90;;;;;;5028656;28;20034;-44
2023/11/06 05:32:03;;;;;;;3.15;1.58;;;8.90;99.90;;;;;;5031181;28;20144;-44
2023/11/06 05:34:30;;;;;;;2.97;1.65;;;8.80;99.90;;;;;;5027492;28;20058;-43
2023/11/06 05:36:57;;;;;;;4.75;1.60;;;8.80;99.90;;;;;;5030202;28;20045;-42
2023/11/06 05:39:24;;;;;;;4.20;1.40;;;8.80;99.90;;;;;;5027829;28;20053;-42
2023/11/06 05:41:51;;;;;;;4.43;1.67;;;8.70;99.90;;;;;;5026887;28;20049;-43
2023/11/06 05:44:18;;;;;;;4.65;1.80;;;8.80;99.90;;;;;;5028106;28;20059;-40
2023/11/06 05:46:45;;;;;;;4.68;1.73;;;8.80;99.90;;;;;;5031886;28;20100;-43
2023/11/06 05:49:12;;;;;;;4.45;1.65;;;8.70;99.90;;;;;;5027284;28;20255;-39
2023/11/06 05:51:40;;;;;;;3.58;1.60;;;8.70;99.90;;;;;;5030127;28;20044;-42
2023/11/06 05:54:07;;;;;;;4.95;1.55;;;8.70;99.90;;;;;;5030095;28;20047;-39
2023/11/06 05:56:35;;;;;;;7.35;1.77;;;8.70;99.90;;;;;;5025960;28;20044;-43
2023/11/06 05:59:03;;;;;;;3.58;1.55;;;8.70;99.90;;;;;;5029701;28;20065;-43
2023/11/06 06:01:31;;;;;;;3.13;1.58;;;8.80;99.90;;;;;;5029584;28;20528;-43
2023/11/06 06:03:58;;;;;;;2.47;1.35;;;8.80;99.90;;;;;;5029185;28;20111;-39
2023/11/06 06:06:25;;;;;;;7.82;2.55;;;8.80;99.90;;;;;;5028217;28;20080;-42
2023/11/06 06:08:53;;;;;;;6.50;1.95;;;8.90;99.90;;;;;;5026277;28;20048;-42
2023/11/06 06:11:20;;;;;;;3.58;1.60;;;8.90;99.90;;;;;;5017563;28;20045;-42
2023/11/06 06:13:47;;;;;;;5.10;1.92;;;9.00;99.90;;;;;;5021220;28;20045;-39
2023/11/06 06:16:14;;;;;;;5.18;1.90;;;8.90;99.90;;;;;;5028029;28;20038;-39
2023/11/06 06:18:41;;;;;;;4.30;1.70;;;9.00;99.90;;;;;;5028281;28;20056;-42
2023/11/06 06:21:09;;;;;;;5.82;1.80;;;9.10;99.90;;;;;;5030117;28;20057;-39
2023/11/06 06:23:36;;;;;;;4.38;1.58;;;9.10;99.90;;;;;;5027926;28;20237;-41
2023/11/06 06:26:03;;;;;;;6.50;2.30;;;9.10;99.90;;;;;;5029796;28;20141;-43
2023/11/06 06:28:30;;;;;;;5.63;1.85;;;9.10;99.90;;;;;;5029529;28;20037;-43
2023/11/06 06:30:57;;;;;;;7.40;1.63;;;9.20;99.90;;;;;;5028338;28;20051;-41
2023/11/06 06:33:24;;;;;;;4.43;1.88;;;9.20;99.90;;;;;;5029524;28;20045;-43
2023/11/06 06:35:52;;;;;;;7.25;1.88;;;9.20;99.90;;;;;;5026080;28;20057;-40
2023/11/06 06:38:19;;;;;;;4.07;1.50;;;9.10;99.90;;;;;;5027926;28;20068;-40
2023/11/06 06:40:49;;;;;;;6.55;1.60;;;9.10;99.90;;;;;;5030802;28;20049;-41
2023/11/06 06:43:17;;;;;;;6.28;1.90;;;9.00;99.90;;;;;;5022889;28;20124;-43
2023/11/06 06:45:45;;;;;;;3.42;1.45;;;9.00;99.90;;;;;;5031876;28;20057;-41
2023/11/06 06:48:15;;;;;;;6.60;1.58;;;9.00;99.90;;;;;;5033228;28;20037;-42
2023/11/06 06:50:42;;;;;;;5.75;1.60;;;9.00;99.90;;;;;;5028855;28;20038;-41
2023/11/06 06:53:10;;;;;;;7.75;2.00;;;9.00;99.90;;;;;;5029470;28;20506;-37
2023/11/06 06:55:37;;;;;;;6.30;2.00;;;9.00;99.90;;;;;;5032184;28;20065;-41
2023/11/06 06:58:05;;;;;;;5.43;1.58;;;9.00;99.90;;;;;;5030302;28;20453;-40
2023/11/06 07:00:33;;;;;;;5.88;1.77;;;9.00;99.90;;;;;;5032785;28;20057;-39
2023/11/06 07:03:00;;;;;;;4.93;1.67;;;9.00;99.90;;;;;;5033261;28;20046;-44
2023/11/06 07:05:28;;;;;;;6.30;1.90;;;9.00;99.90;;;;;;5028545;28;20041;-40
2023/11/06 07:07:55;;;;;;;6.55;1.60;;;9.10;99.90;;;;;;5027197;28;20160;-40
2023/11/06 07:10:22;;;;;;;9.60;1.90;;;9.20;99.90;;;;;;5025732;28;20155;-38
2023/11/06 07:12:49;;;;;;;5.47;1.83;;;9.20;99.90;;;;;;5030310;28;20056;-42
2023/11/06 07:15:17;;;;;;;5.32;2.30;;;9.30;99.90;;;;;;5027558;28;20568;-38
2023/11/06 07:17:44;;;;;;;5.03;1.65;;;9.40;99.90;;;;;;5028895;28;20045;-43
2023/11/06 07:20:15;;;;;;;4.43;2.17;;;9.40;99.90;;;;;;5028392;28;20049;-41
2023/11/06 07:22:42;;;;;;;4.35;1.50;;;9.50;99.90;;;;;;5029339;28;20045;-44
2023/11/06 07:25:09;;;;;;;6.60;1.95;;;9.50;99.90;;;;;;5032913;28;20053;-39
2023/11/06 07:27:37;;;;;;;5.72;1.92;;;9.50;99.90;;;;;;5036894;28;20087;-42
2023/11/06 07:30:05;;;;;;;5.18;1.77;;;9.60;99.90;;;;;;5024709;28;20133;-44
2023/11/06 07:32:32;;;;;;;6.35;2.05;;;9.60;99.90;;;;;;5026456;28;20041;-39
2023/11/06 07:35:00;;;;;;;4.38;1.80;;;9.70;99.90;;;;;;5029257;28;20058;-43
2023/11/06 07:37:29;;;;;;;6.70;2.35;;;9.80;99.90;;;;;;5025145;28;20113;-42
2023/11/06 07:39:57;;;;;;;7.28;2.33;;;9.80;99.90;;;;;;5029959;28;20060;-42
2023/11/06 07:42:24;;;;;;;6.28;2.20;;;9.90;99.90;;;;;;5027729;28;20045;-42
2023/11/06 07:44:51;;;;;;;10.57;2.33;;;10.00;99.90;;;;;;5026644;28;20050;-42
2023/11/06 07:47:18;;;;;;;4.63;2.08;;;10.10;99.90;;;;;;5028449;28;20517;-40
2023/11/06 07:49:45;;;;;;;7.25;2.08;;;10.10;99.90;;;;;;5029037;28;20160;-40
2023/11/06 07:52:13;;;;;;;4.63;1.73;;;10.20;99.90;;;;;;5026444;28;20429;-43
2023/11/06 07:54:41;;;;;;;5.72;2.10;;;10.20;99.90;;;;;;5031171;28;20075;-43
2023/11/06 07:57:11;;;;;;;6.50;1.70;;;10.20;99.90;;;;;;5033733;28;20121;-39
2023/11/06 07:59:41;;;;;;;6.65;1.70;;;10.20;99.90;;;;;;5037404;28;20069;-41
2023/11/06 08:02:10;;;;;;;7.18;1.75;;;10.20;99.90;;;;;;5021465;28;20053;-39
2023/11/06 08:04:41;;;;;;;3.63;1.40;;;10.20;99.90;;;;;;5037352;28;20056;-44
2023/11/06 08:07:08;;;;;;;5.13;1.70;;;10.30;99.90;;;;;;5039367;28;20054;-42
2023/11/06 08:09:35;;;;;;;7.78;1.98;;;10.20;99.90;;;;;;5033908;28;20552;-40
2023/11/06 08:12:06;;;;;;;4.82;1.67;;;10.20;99.90;;;;;;5032611;28;20048;-42
2023/11/06 08:14:34;;;;;;;5.75;1.80;;;10.10;99.90;;;;;;5033572;28;20054;-41
2023/11/06 08:17:01;;;;;;;5.03;1.77;;;10.10;99.90;;;;;;5036366;28;20065;-38
2023/11/06 08:19:28;;;;;;;4.60;1.55;;;10.10;99.90;;;;;;5037930;28;20052;-40
2023/11/06 08:21:56;;;;;;;5.30;1.90;;;10.10;99.90;;;;;;5039011;28;20056;-43
2023/11/06 08:24:26;;;;;;;4.20;1.60;;;10.20;99.90;;;;;;5041341;28;20045;-40
2023/11/06 08:26:54;;;;;;;5.05;1.83;;;10.20;99.90;;;;;;5042218;28;20049;-40
2023/11/06 08:29:21;;;;;;;4.80;1.95;;;10.20;99.90;;;;;;5041450;28;20518;-42
2023/11/06 08:31:49;;;;;;;7.10;1.70;;;10.20;99.90;;;;;;5035507;28;20050;-41
2023/11/06 08:34:16;;;;;;;6.63;1.90;;;10.30;99.90;;;;;;5040295;28;20097;-42
2023/11/06 08:36:44;;;;;;;5.47;2.03;;;10.50;99.90;;;;;;5036755;28;20125;-39
2023/11/06 08:39:12;;;;;;;3.25;1.65;;;10.50;99.90;;;;;;5032516;28;20046;-40
2023/11/06 08:41:40;;;;;;;3.67;1.80;;;10.70;99.90;;;;;;5033724;28;20122;-39
2023/11/06 08:44:07;;;;;;;2.85;1.48;;;10.70;99.90;;;;;;5038279;28;20061;-42
2023/11/06 08:46:34;;;;;;;5.90;1.90;;;10.70;99.90;;;;;;5041421;28;20056;-40
2023/11/06 08:49:01;;;;;;;3.88;1.95;;;10.70;99.90;;;;;;5042054;28;20109;-41
2023/11/06 08:51:31;;;;;;;4.25;1.70;;;10.80;99.90;;;;;;5038416;28;20508;-41
2023/11/06 08:53:58;;;;;;;6.00;1.80;;;10.70;99.90;;;;;;5037334;28;20045;-44
2023/11/06 08:56:29;;;;;;;6.13;1.75;;;10.80;99.90;;;;;;5034961;28;20050;-44
2023/11/06 08:58:59;;;;;;;4.53;1.63;;;10.80;99.90;;;;;;5030108;28;20139;-40
2023/11/06 09:01:26;;;;;;;3.20;1.63;;;10.90;99.90;;;;;;5030222;28;20046;-39
2023/11/06 09:03:53;;;;;;;4.47;1.80;;;11.10;99.90;;;;;;5031367;28;20053;-39
2023/11/06 09:06:22;;;;;;;4.30;1.75;;;11.20;99.90;;;;;;5031105;28;20072;-43
2023/11/06 09:08:49;;;;;;;6.10;2.00;;;11.20;99.90;;;;;;5026408;28;20053;-42
2023/11/06 09:11:16;;;;;;;4.53;1.70;;;11.20;99.90;;;;;;5031256;28;20116;-45
2023/11/06 09:13:44;;;;;;;7.10;2.20;;;11.10;99.90;;;;;;5031415;28;20115;-41
2023/11/06 09:16:11;;;;;;;4.40;1.70;;;11.10;99.90;;;;;;5031880;28;20065;-41
2023/11/06 09:18:39;;;;;;;6.60;2.40;;;11.20;99.90;;;;;;5032749;28;20495;-41
2023/11/06 09:21:13;;;;;;;5.38;2.20;;;11.20;99.90;;;;;;5031802;28;20136;-39
2023/11/06 09:23:41;;;;;;;7.78;2.22;;;11.30;99.90;;;;;;5030828;28;20519;-41
2023/11/06 09:26:10;;;;;;;12.02;2.50;;;11.30;99.90;;;;;;5032155;28;20052;-42
2023/11/06 09:28:38;;;;;;;10.43;2.78;;;11.30;99.90;;;;;;5029130;28;20057;-43
2023/11/06 09:31:05;;;;;;;5.35;2.15;;;11.40;99.90;;;;;;5031110;28;20065;-39
2023/11/06 09:33:33;;;;;;;11.35;3.00;;;11.60;99.90;;;;;;5025891;28;20068;-41
2023/11/06 09:36:01;;;;;;;10.38;2.60;;;11.80;99.90;;;;;;5038158;28;20041;-40
2023/11/06 09:38:28;;;;;;;6.05;2.58;;;11.90;99.90;;;;;;5039896;28;20049;-41
2023/11/06 09:40:56;;;;;;;6.90;2.40;;;12.00;99.90;;;;;;5038365;28;20061;-41
2023/11/06 09:43:23;;;;;;;6.72;2.63;;;12.10;99.90;;;;;;5033703;28;20052;-41
2023/11/06 09:45:51;;;;;;;7.00;2.60;;;12.10;99.90;;;;;;5036596;28;20569;-40
2023/11/06 09:48:19;;;;;;;4.10;2.35;;;12.30;99.90;;;;;;5033914;28;20500;-42
2023/11/06 09:50:49;;;;;;;7.85;3.10;;;12.40;99.90;;;;;;5031508;28;20509;-43
2023/11/06 09:53:17;;;;;;;8.10;2.90;;;12.30;99.90;;;;;;5031699;28;20084;-39
2023/11/06 09:55:45;;;;;;;6.82;2.65;;;12.50;99.90;;;;;;5030525;28;20057;-41
2023/11/06 09:58:12;;;;;;;11.55;4.03;;;12.50;99.90;;;;;;5028496;28;20067;-41
2023/11/06 10:00:39;;;;;;;5.35;2.60;;;12.60;99.90;;;;;;5027066;28;20064;-41
2023/11/06 10:03:06;;;;;;;7.32;3.10;;;12.90;99.90;;;;;;5026933;28;20061;-39
2023/11/06 10:05:34;;;;;;;8.88;3.17;;;13.20;99.90;;;;;;5028765;28;20045;-42
2023/11/06 10:08:03;;;;;;;6.97;3.13;;;13.40;99.90;;;;;;5036038;28;20049;-39
2023/11/06 10:10:30;;;;;;;4.57;2.67;;;13.60;99.90;;;;;;5031731;28;20140;-40
2023/11/06 10:13:05;;;;;;;7.47;2.80;;;13.40;99.90;;;;;;5030552;28;20510;-39
2023/11/06 10:15:36;;;;;;;4.05;2.60;;;13.80;99.90;;;;;;5030432;28;20033;-41
2023/11/06 10:18:15;;;;;;;5.63;3.22;;;13.60;99.90;;;;;;5031234;28;20068;-43
2023/11/06 10:20:49;;;;;;;8.35;3.20;;;13.60;99.90;;;;;;5029466;28;20046;-40
2023/11/06 10:23:30;;;;;;;6.88;2.80;;;13.80;99.90;;;;;;5029243;28;20085;-44
2023/11/06 10:26:11;;;;;;;4.68;2.90;;;13.70;99.90;;;;;;5028775;28;20053;-43
2023/11/06 10:28:38;;;;;;;8.10;2.90;;;13.70;99.90;;;;;;5027865;28;20517;-40
2023/11/06 10:31:07;;;;;;;8.85;2.97;;;13.40;99.90;;;;;;5029731;28;20133;-40
2023/11/06 10:33:34;;;;;;;4.88;2.70;;;13.50;99.90;;;;;;5026618;28;20052;-42
2023/11/06 10:36:13;;;;;;;7.28;2.88;;;13.60;99.90;;;;;;5030511;28;20049;-41
2023/11/06 10:38:41;;;;;;;4.95;2.85;;;13.60;99.90;;;;;;5024499;28;20425;-39
2023/11/06 10:41:24;;;;;;;6.55;3.15;;;13.80;99.90;;;;;;5031470;28;20204;-42
2023/11/06 10:43:52;;;;;;;6.50;2.85;;;13.80;99.90;;;;;;5031267;28;20092;-40
2023/11/06 10:46:31;;;;;;;7.20;3.17;;;13.70;99.90;;;;;;5038479;28;20076;-40
2023/11/06 10:49:27;;;;;;;5.53;2.90;;;13.90;99.90;;;;;;5034113;28;20069;-41
2023/11/06 10:51:56;;;;;;;4.18;3.00;;;14.10;99.90;;;;;;5035265;28;20049;-42
2023/11/06 10:54:24;;;;;;;9.25;2.95;;;14.00;99.90;;;;;;5033265;28;20091;-43
2023/11/06 10:56:57;;;;;;;5.20;3.08;;;13.90;99.90;;;;;;5039684;28;20398;-42
2023/11/06 10:59:26;;;;;;;6.20;3.10;;;13.60;99.90;;;;;;5041236;28;20076;-44
2023/11/06 11:01:59;;;;;;;6.93;3.00;;;13.40;99.90;;;;;;5033525;28;20073;-43
2023/11/06 11:04:29;;;;;;;4.45;3.13;;;13.30;99.90;;;;;;5034014;28;20375;-43
2023/11/06 11:07:03;;;;;;;5.32;2.67;;;13.60;99.90;;;;;;5029745;28;20053;-43
2023/11/06 11:09:31;;;;;;;4.47;2.60;;;14.00;99.90;;;;;;5027154;28;20052;-42
2023/11/06 11:12:01;;;;;;;5.63;3.10;;;14.30;99.90;;;;;;5025503;28;20065;-40
2023/11/06 11:14:29;;;;;;;4.57;2.95;;;14.70;99.90;;;;;;5029423;28;20433;-45
2023/11/06 11:16:57;;;;;;;5.88;3.20;;;14.40;99.90;;;;;;5029780;28;20625;-42
2023/11/06 11:19:33;;;;;;;4.70;2.95;;;13.80;99.90;;;;;;5029668;28;20049;-44
2023/11/06 11:22:09;;;;;;;6.03;3.08;;;13.70;99.90;;;;;;5030664;28;20050;-43
2023/11/06 11:24:42;;;;;;;5.82;2.90;;;13.50;99.90;;;;;;5024918;28;20054;-45
2023/11/06 11:27:11;;;;;;;4.57;3.10;;;13.60;99.90;;;;;;5034736;28;20144;-42
2023/11/06 11:29:53;;;;;;;4.15;3.00;;;13.90;99.90;;;;;;5037533;28;20108;-40
2023/11/06 11:32:47;;;;;;;6.10;2.80;;;14.00;99.90;;;;;;5033151;28;20170;-39
2023/11/06 11:35:15;;;;;;;7.05;3.33;;;13.90;99.90;;;;;;5029071;28;20099;-44
2023/11/06 11:37:42;;;;;;;4.07;2.70;;;14.30;99.90;;;;;;5030735;28;20072;-42
2023/11/06 11:40:10;;;;;;;3.88;2.67;;;14.00;99.90;;;;;;5031401;28;20057;-44
2023/11/06 11:42:38;;;;;;;10.93;3.03;;;14.00;99.90;;;;;;5032947;28;20041;-42
2023/11/06 11:45:06;;;;;;;6.57;2.70;;;13.80;99.90;;;;;;5035369;28;20079;-42
2023/11/06 11:47:49;;;;;;;7.72;2.60;;;13.70;99.90;;;;;;5032160;28;20210;-42
2023/11/06 11:50:36;;;;;;;;;;;13.60;99.90;;;;;;5033688;28;20053;-42
2023/11/06 11:53:03;;;;;;;6.90;2.47;;;13.80;99.90;;;;;;5041744;28;19925;-42
2023/11/06 11:55:37;;;;;;;5.40;3.10;;;13.80;99.90;;;;;;5037203;28;20045;-41
2023/11/06 11:58:09;;;;;;;5.72;3.10;;;13.80;99.90;;;;;;5041479;28;20080;-41
2023/11/06 12:00:42;;;;;;;5.93;2.90;;;13.90;99.90;;;;;;5028076;28;20049;-44
2023/11/06 12:03:12;;;;;;;5.38;2.95;;;13.90;99.90;;;;;;5031146;28;20049;-43
2023/11/06 12:05:41;;;;;;;6.40;3.20;;;13.80;99.90;;;;;;5031649;28;20438;-39
2023/11/06 12:08:16;;;;;;;6.85;2.97;;;13.70;99.90;;;;;;5030175;28;20112;-42
2023/11/06 12:10:44;;;;;;;6.10;2.60;;;13.70;99.90;;;;;;5032275;28;20355;-39
2023/11/06 12:13:19;;;;;;;3.55;2.70;;;13.70;99.90;;;;;;5030039;28;20057;-41
2023/11/06 12:15:46;;;;;;;3.92;2.50;;;13.70;99.90;;;;;;5031272;28;20029;-41
2023/11/06 12:18:21;;;;;;;3.13;2.50;;;13.70;99.90;;;;;;5032937;28;20072;-41
2023/11/06 12:20:48;;;;;;;8.40;2.55;;;13.80;99.90;;;;;;5033471;28;20049;-42
2023/11/06 12:23:15;;;;;;;4.75;3.08;;;13.80;99.90;;;;;;5034353;28;20052;-41
2023/11/06 12:25:43;;;;;;;4.35;2.50;;;14.10;99.90;;;;;;5038870;28;20045;-43
2023/11/06 12:28:11;;;;;;;4.25;2.95;;;15.10;99.90;;;;;;5027563;28;20699;-42
2023/11/06 12:30:40;;;;;;;3.67;2.88;;;16.30;99.90;;;;;;5028219;28;20132;-43
2023/11/06 12:33:18;;;;;;;4.57;2.90;;;17.20;99.90;;;;;;5029681;28;20056;-44
2023/11/06 12:35:50;;;;;;;6.20;3.40;;;17.00;99.90;;;;;;5028637;28;20072;-42
2023/11/06 12:38:36;;;;;;;5.77;2.90;;;16.40;99.90;;;;;;5026138;28;20064;-40
2023/11/06 12:41:05;;;;;;;7.18;4.35;;;15.90;99.90;;;;;;5030629;28;20072;-41
2023/11/06 12:43:34;;;;;;;4.85;3.30;;;15.40;99.90;;;;;;5027283;28;20045;-41
2023/11/06 12:46:02;;;;;;;5.25;3.28;;;14.90;99.90;;;;;;5030447;28;20115;-44
2023/11/06 12:48:33;;;;;;;4.07;3.17;;;15.10;99.90;;;;;;5030267;28;20047;-39
2023/11/06 12:51:04;;;;;;;5.78;3.20;;;14.90;99.90;;;;;;5030658;28;20050;-43
2023/11/06 12:53:42;;;;;;;5.68;3.50;;;14.50;99.90;;;;;;5031562;28;20041;-41
2023/11/06 12:56:10;;;;;;;6.57;3.55;;;14.30;99.90;;;;;;5031105;28;20051;-39
2023/11/06 12:58:37;;;;;;;4.25;3.50;;;14.30;99.90;;;;;;5028452;28;20045;-41
2023/11/06 13:01:20;;;;;;;3.78;3.25;;;15.10;99.90;;;;;;5032077;28;20057;-41